ADDS METAR Data INFO
IDs: Format: Raw Decoded Include TAF

Data at: 2147 UTC 15 Dec 2017

KCIC 152047Z VRB05KT 10SM OVC080 12/03 A3012
KCIC 151947Z VRB05KT 10SM OVC080 10/04 A3015
KCIC 151850Z VRB05KT 10SM BKN150 OVC200 09/04 A3020
KCIC 151747Z VRB05KT 10SM SCT150 BKN200 07/05 A3020
KCIC 151650Z VRB05KT 25SM SCT150 BKN200 07/04 A3020
KCIC 151547Z VRB05KT 10SM SCT120 BKN200 03/02 A3020
KCIC 151455Z VRB05KT 10SM SCT120 BKN200 04/03 A3020
KCIC 151235Z AUTO 00000KT 10SM CLR 02/01 A3020 RMK AO1
KCIC 151215Z AUTO 00000KT 10SM CLR 03/03 A3021 RMK AO1
KCIC 151155Z AUTO 00000KT 10SM CLR 03/03 A3021 RMK AO1
KCIC 151135Z AUTO 00000KT 10SM CLR 02/02 A3022 RMK AO1
KCIC 151115Z AUTO 00000KT 10SM CLR 03/03 A3021 RMK AO1
KCIC 151055Z AUTO 00000KT 10SM CLR 02/02 A3022 RMK AO1
KCIC 151035Z AUTO 00000KT 10SM CLR 03/02 A3022 RMK AO1
KCIC 151015Z AUTO 00000KT 10SM CLR 05/03 A3022 RMK AO1
KCIC 150955Z AUTO 00000KT 10SM CLR 03/03 A3022 RMK AO1
KCIC 150935Z AUTO 00000KT 10SM CLR 04/03 A3021 RMK AO1
KCIC 150915Z AUTO 00000KT 10SM CLR 02/02 A3022 RMK AO1
KCIC 150855Z AUTO 00000KT 10SM CLR 04/03 A3021 RMK AO1
KCIC 150835Z AUTO 00000KT 10SM CLR 05/03 A3021 RMK AO1
KCIC 150815Z AUTO 00000KT 10SM CLR 05/04 A3022 RMK AO1
KCIC 150755Z AUTO 00000KT 10SM CLR 08/04 A3022 RMK AO1
KCIC 150735Z AUTO 00000KT 10SM CLR 09/04 A3022 RMK AO1
KCIC 150715Z AUTO 04006KT 10SM CLR 08/04 A3021 RMK AO1
KCIC 150655Z AUTO 00000KT 10SM CLR 07/04 A3021 RMK AO1
KCIC 150635Z AUTO 00000KT 10SM CLR 08/04 A3021 RMK AO1
KCIC 150615Z AUTO 00000KT 10SM CLR 09/05 A3019 RMK AO1
KCIC 150555Z AUTO 00000KT 10SM CLR 09/05 A3020 RMK AO1
KCIC 150535Z AUTO 00000KT 10SM CLR 08/05 A3020 RMK AO1
KCIC 150515Z AUTO 03004KT 10SM CLR 09/05 A3020 RMK AO1
KCIC 150455Z AUTO 00000KT 10SM CLR 08/05 A3019 RMK AO1
KCIC 150435Z AUTO 00000KT 10SM CLR 09/05 A3018 RMK AO1
KCIC 150415Z AUTO 00000KT 10SM CLR 09/05 A3018 RMK AO1
KCIC 150355Z AUTO 00000KT 10SM CLR 09/05 A3017 RMK AO1
KCIC 150335Z AUTO 00000KT 10SM CLR 10/05 A3018 RMK AO1
KCIC 150315Z AUTO 00000KT 10SM CLR 09/05 A3017 RMK AO1
KCIC 150247Z 10005KT 10SM SKC 10/05 A3017 RMK LAST
KCIC 150235Z AUTO 00000KT 10SM CLR 10/05 A3016 RMK AO1
KCIC 150215Z AUTO 00000KT 10SM CLR 10/05 A3015 RMK AO1
KCIC 150155Z AUTO 00000KT 10SM CLR 11/05 A3015 RMK AO1
KCIC 150152Z 10005KT 10SM SKC 11/05 A3015
KCIC 150135Z AUTO 00000KT 10SM CLR 12/05 A3014 RMK AO1
KCIC 150115Z AUTO 00000KT 10SM CLR 12/05 A3014 RMK AO1
KCIC 150055Z AUTO 00000KT 10SM CLR 13/04 A3013 RMK AO1
KCIC 150047Z 11006KT 10SM BKN180 13/04 A3013
KCIC 150035Z AUTO 00000KT 10SM CLR 13/04 A3013 RMK AO1
KCIC 150015Z AUTO 14006KT 10SM CLR 14/04 A3012 RMK AO1
KCIC 142355Z AUTO 13009KT 10SM CLR 14/04 A3012 RMK AO1
KCIC 142347Z 12008KT 10SM BKN200 15/04 A3012
KCIC 142250Z 14008KT 10SM BKN200 15/04 A3011
KCIC 142147Z 14010KT 10SM SCT200 15/05 A3011
KCIC 142050Z 13006KT 10SM BKN250 14/05 A3013
KCIC 141947Z 13008KT 25SM SCT250 13/05 A3014
KCIC 141851Z 14008KT 10SM FEW200 12/05 A3016
KCIC 141747Z 14010KT 10SM SCT200 09/04 A3016
KCIC 141650Z 13010KT 40SM FEW200 07/04 A3013
KCIC 141630Z 13010KT 40SM FEW200 06/03 A3012
KCIC 141548Z VRB05KT 10SM FEW200 04/00 A3011
KCIC 141450Z 31008KT 10SM FEW200 05/00 A3008
KCIC 141235Z AUTO 00000KT 10SM CLR 04/00 A3006 RMK AO1
KCIC 141215Z AUTO 00000KT 10SM CLR 02/00 A3006 RMK AO1
KCIC 141155Z AUTO 00000KT 10SM CLR 04/00 A3007 RMK AO1
KCIC 141135Z AUTO 00000KT 10SM CLR 03/01 A3007 RMK AO1
KCIC 141115Z AUTO 00000KT 10SM CLR 02/00 A3008 RMK AO1
KCIC 141055Z AUTO 00000KT 10SM CLR 02/00 A3008 RMK AO1
KCIC 141035Z AUTO 00000KT 10SM CLR 05/02 A3007 RMK AO1
KCIC 141015Z AUTO 00000KT 10SM CLR 04/02 A3007 RMK AO1
KCIC 140955Z AUTO 00000KT 10SM CLR 05/02 A3007 RMK AO1